createdAt,value
2016-02-11T00:00:07.459Z,0
2016-02-11T00:01:07.430Z,0
2016-02-11T00:02:07.417Z,0
2016-02-11T00:03:07.404Z,0
2016-02-11T00:04:07.391Z,0
2016-02-11T00:05:07.410Z,0
2016-02-11T00:06:07.413Z,0
2016-02-11T00:07:07.447Z,0
2016-02-11T00:08:07.387Z,0
2016-02-11T00:09:07.390Z,0
2016-02-11T00:10:07.377Z,0
2016-02-11T00:11:07.427Z,0
2016-02-11T00:12:07.382Z,0
2016-02-11T00:13:07.401Z,0
2016-02-11T00:14:07.406Z,0
2016-02-11T00:15:07.392Z,0
2016-02-11T00:16:07.411Z,0
2016-02-11T00:17:07.368Z,0
2016-02-11T00:18:07.371Z,0
2016-02-11T00:19:07.373Z,0
2016-02-11T00:20:07.360Z,0
2016-02-11T00:21:07.379Z,0
2016-02-11T00:22:07.351Z,0
2016-02-11T00:23:07.369Z,0
2016-02-11T00:24:07.341Z,0
2016-02-11T00:25:07.361Z,0
2016-02-11T00:26:07.317Z,0
2016-02-11T00:27:07.351Z,0
2016-02-11T00:28:07.338Z,0
2016-02-11T00:29:07.309Z,0
2016-02-11T00:30:07.333Z,0
2016-02-11T00:31:07.005Z,0
2016-02-11T00:32:07.322Z,0
2016-02-11T00:33:07.319Z,0
2016-02-11T00:34:07.369Z,0
2016-02-11T00:35:07.330Z,0
2016-02-11T00:36:07.295Z,0
2016-02-11T00:37:07.297Z,0
2016-02-11T00:38:07.284Z,0
2016-02-11T00:39:07.287Z,0
2016-02-11T00:40:07.290Z,0
2016-02-11T00:41:07.262Z,0
2016-02-11T00:42:07.281Z,0
2016-02-11T00:43:07.285Z,0
2016-02-11T00:44:07.255Z,0
2016-02-11T00:45:07.290Z,0
2016-02-11T00:46:07.260Z,0
2016-02-11T00:47:07.264Z,0
2016-02-11T00:48:07.251Z,0
2016-02-11T00:49:07.285Z,0
2016-02-11T00:50:07.241Z,0
2016-02-11T00:51:07.245Z,0
2016-02-11T00:52:07.248Z,0
2016-02-11T00:53:07.220Z,0
2016-02-11T00:54:07.237Z,0
2016-02-11T00:55:07.241Z,0
2016-02-11T00:56:07.307Z,0
2016-02-11T00:57:07.199Z,0
2016-02-11T00:58:07.249Z,0
2016-02-11T00:59:07.206Z,0
2016-02-11T01:00:07.209Z,0
2016-02-11T01:01:07.212Z,0
2016-02-11T01:02:07.214Z,0
2016-02-11T01:03:07.186Z,0
2016-02-11T01:04:07.219Z,0
2016-02-11T01:05:07.164Z,0
2016-02-11T01:06:07.198Z,0
2016-02-11T01:07:07.169Z,0
2016-02-11T01:08:07.157Z,0
2016-02-11T01:09:07.160Z,0
2016-02-11T01:10:07.147Z,0
2016-02-11T01:11:07.150Z,0
2016-02-11T01:12:07.153Z,0
2016-02-11T01:13:07.170Z,0
2016-02-11T01:14:07.126Z,0
2016-02-11T01:15:07.145Z,0
2016-02-11T01:16:07.117Z,0
2016-02-11T01:17:07.135Z,0
2016-02-11T01:18:07.122Z,0
2016-02-11T01:19:07.156Z,0
2016-02-11T01:20:07.112Z,0
2016-02-11T01:21:07.178Z,0
2016-02-11T01:22:07.134Z,0
2016-02-11T01:23:07.121Z,0
2016-02-11T01:24:07.092Z,0
2016-02-11T01:25:07.111Z,0
2016-02-11T01:26:07.212Z,0
2016-02-11T01:27:06.948Z,0
2016-02-11T01:28:07.076Z,0
2016-02-11T01:29:07.078Z,0
2016-02-11T01:30:07.081Z,0
2016-02-11T01:31:07.084Z,0
2016-02-11T01:32:07.071Z,0
2016-02-11T01:33:07.093Z,0
2016-02-11T01:34:07.080Z,0
2016-02-11T01:35:07.067Z,0
2016-02-11T01:36:07.055Z,0
2016-02-11T01:37:07.058Z,0
2016-02-11T01:38:07.072Z,0
2016-02-11T01:39:07.028Z,0
2016-02-11T01:40:07.047Z,0
2016-02-11T01:41:07.034Z,0
2016-02-11T01:42:07.036Z,0
2016-02-11T01:43:07.024Z,0
2016-02-11T01:44:07.041Z,0
2016-02-11T01:45:07.014Z,0
2016-02-11T01:46:07.047Z,0
2016-02-11T01:47:07.019Z,0
2016-02-11T01:48:07.021Z,0
2016-02-11T01:49:07.024Z,0
2016-02-11T01:50:06.995Z,0
2016-02-11T01:51:06.999Z,0
2016-02-11T01:52:06.970Z,0
2016-02-11T01:53:07.004Z,0
2016-02-11T01:54:07.006Z,0
2016-02-11T01:55:06.962Z,0
2016-02-11T01:56:07.028Z,0
2016-02-11T01:57:06.969Z,0
2016-02-11T01:58:06.988Z,0
2016-02-11T01:59:06.958Z,0
2016-02-11T02:00:06.960Z,0
2016-02-11T02:01:06.949Z,0
2016-02-11T02:02:06.952Z,0
2016-02-11T02:03:06.955Z,0
2016-02-11T02:04:06.801Z,0
2016-02-11T02:05:06.960Z,0
2016-02-11T02:06:06.947Z,0
2016-02-11T02:07:06.934Z,0
2016-02-11T02:08:06.953Z,0
2016-02-11T02:09:06.939Z,0
2016-02-11T02:10:06.927Z,0
2016-02-11T02:11:06.913Z,0
2016-02-11T02:12:06.932Z,0
2016-02-11T02:13:06.949Z,0
2016-02-11T02:14:06.906Z,0
2016-02-11T02:15:06.924Z,0
2016-02-11T02:16:06.893Z,0
2016-02-11T02:17:06.880Z,0
2016-02-11T02:18:06.900Z,0
2016-02-11T02:19:06.918Z,0
2016-02-11T02:20:06.889Z,0
2016-02-11T02:21:06.908Z,0
2016-02-11T02:22:06.879Z,0
2016-02-11T02:23:06.882Z,0
2016-02-11T02:24:06.900Z,0
2016-02-11T02:25:06.920Z,0
2016-02-11T02:26:06.875Z,0
2016-02-11T02:27:06.862Z,0
2016-02-11T02:28:06.834Z,0
2016-02-11T02:29:06.837Z,0
2016-02-11T02:30:06.840Z,0
2016-02-11T02:31:06.843Z,0
2016-02-11T02:32:06.845Z,0
2016-02-11T02:33:06.832Z,0
2016-02-11T02:34:06.851Z,0
2016-02-11T02:35:06.823Z,0
2016-02-11T02:36:06.840Z,0
2016-02-11T02:37:06.843Z,0
2016-02-11T02:38:06.814Z,0
2016-02-11T02:39:06.817Z,0
2016-02-11T02:40:06.805Z,0
2016-02-11T02:41:06.823Z,0
2016-02-11T02:42:06.794Z,0
2016-02-11T02:43:06.780Z,0
2016-02-11T02:44:06.799Z,0
2016-02-11T02:45:06.786Z,0
2016-02-11T02:46:06.789Z,0
2016-02-11T02:47:06.808Z,0
2016-02-11T02:48:06.795Z,0
2016-02-11T02:49:06.766Z,0
2016-02-11T02:50:06.800Z,0
2016-02-11T02:51:06.755Z,0
2016-02-11T02:52:06.790Z,0
2016-02-11T02:53:06.760Z,0
2016-02-11T02:54:06.766Z,0
2016-02-11T02:55:06.739Z,0
2016-02-11T02:56:06.805Z,0
2016-02-11T02:57:06.745Z,0
2016-02-11T02:58:06.731Z,0
2016-02-11T02:59:06.754Z,0
2016-02-11T03:00:06.725Z,0
2016-02-11T03:01:06.743Z,0
2016-02-11T03:02:06.715Z,0
2016-02-11T03:03:06.719Z,0
2016-02-11T03:04:06.727Z,0
2016-02-11T03:05:06.730Z,0
2016-02-11T03:06:06.703Z,0
2016-02-11T03:07:06.721Z,0
2016-02-11T03:08:06.708Z,0
2016-02-11T03:09:06.679Z,0
2016-02-11T03:10:06.682Z,0
2016-02-11T03:11:06.684Z,0
2016-02-11T03:12:06.703Z,0
2016-02-11T03:13:06.722Z,0
2016-02-11T03:14:06.692Z,0
2016-02-11T03:15:06.696Z,0
2016-02-11T03:16:06.683Z,0
2016-02-11T03:17:06.702Z,0
2016-02-11T03:18:06.678Z,0
2016-02-11T03:19:06.665Z,0
2016-02-11T03:20:06.683Z,0
2016-02-11T03:21:06.640Z,0
2016-02-11T03:23:06.677Z,0
2016-02-11T03:24:06.635Z,0
2016-02-11T03:25:06.654Z,0
2016-02-11T03:26:06.625Z,0
2016-02-11T03:27:06.628Z,0
2016-02-11T03:28:06.631Z,0
2016-02-11T03:29:06.619Z,0
2016-02-11T03:30:06.637Z,0
2016-02-11T03:31:06.624Z,0
2016-02-11T03:32:06.611Z,0
2016-02-11T03:33:06.614Z,0
2016-02-11T03:34:06.585Z,0
2016-02-11T03:35:06.604Z,0
2016-02-11T03:36:06.590Z,0
2016-02-11T03:37:06.610Z,0
2016-02-11T03:38:06.582Z,0
2016-02-11T03:39:06.585Z,0
2016-02-11T03:40:06.587Z,0
2016-02-11T03:41:06.589Z,0
2016-02-11T03:42:06.560Z,0
2016-02-11T03:43:06.564Z,0
2016-02-11T03:44:06.598Z,0
2016-02-11T03:45:06.569Z,0
2016-02-11T03:46:06.540Z,0
2016-02-11T03:47:06.574Z,0
2016-02-11T03:48:06.562Z,0
2016-02-11T03:49:06.534Z,0
2016-02-11T03:50:06.536Z,0
2016-02-11T03:51:06.539Z,0
2016-02-11T03:52:06.541Z,0
2016-02-11T03:53:06.544Z,0
2016-02-11T03:54:06.531Z,0
2016-02-11T03:55:06.550Z,0
2016-02-11T03:56:06.608Z,0
2016-02-11T03:57:06.533Z,0
2016-02-11T03:58:06.519Z,0
2016-02-11T03:59:06.539Z,0
2016-02-11T04:00:06.525Z,0
2016-02-11T04:01:06.513Z,0
2016-02-11T04:02:06.499Z,0
2016-02-11T04:03:06.488Z,0
2016-02-11T04:04:06.536Z,0
2016-02-11T04:05:06.493Z,0
2016-02-11T04:06:06.496Z,0
2016-02-11T04:07:06.499Z,0
2016-02-11T04:08:06.486Z,0
2016-02-11T04:09:06.505Z,0
2016-02-11T04:10:06.476Z,0
2016-02-11T04:11:06.667Z,0
2016-02-11T04:12:06.466Z,0
2016-02-11T04:13:06.453Z,0
2016-02-11T04:14:06.645Z,0
2016-02-11T04:15:06.445Z,0
2016-02-11T04:16:06.463Z,0
2016-02-11T04:17:06.435Z,0
2016-02-11T04:18:06.437Z,0
2016-02-11T04:19:06.455Z,0
2016-02-11T04:20:06.443Z,0
2016-02-11T04:21:06.430Z,0
2016-02-11T04:22:06.417Z,0
2016-02-11T04:23:06.436Z,0
2016-02-11T04:24:06.408Z,0
2016-02-11T04:25:06.410Z,0
2016-02-11T04:26:06.413Z,0
2016-02-11T04:27:06.405Z,0
2016-02-11T04:28:06.423Z,0
2016-02-11T04:29:06.410Z,0
2016-02-11T04:30:06.382Z,0
2016-02-11T04:31:06.399Z,0
2016-02-11T04:32:06.387Z,0
2016-02-11T04:33:06.390Z,0
2016-02-11T04:34:06.376Z,0
2016-02-11T04:35:06.365Z,0
2016-02-11T04:36:06.492Z,0
2016-02-11T04:37:06.354Z,0
2016-02-11T04:38:06.372Z,0
2016-02-11T04:39:06.360Z,0
2016-02-11T04:40:06.348Z,0
2016-02-11T04:41:06.351Z,0
2016-02-11T04:42:06.353Z,0
2016-02-11T04:43:06.325Z,0
2016-02-11T04:44:06.343Z,0
2016-02-11T04:45:06.330Z,0
2016-02-11T04:46:06.364Z,0
2016-02-11T04:47:06.320Z,0
2016-02-11T04:48:06.324Z,0
2016-02-11T04:49:06.327Z,0
2016-02-11T04:50:06.315Z,0
2016-02-11T04:51:06.317Z,0
2016-02-11T04:52:06.288Z,0
2016-02-11T04:53:06.322Z,0
2016-02-11T04:54:06.168Z,0
2016-02-11T04:55:06.312Z,0
2016-02-11T04:56:06.379Z,0
2016-02-11T04:57:06.287Z,0
2016-02-11T04:58:06.278Z,0
2016-02-11T04:59:06.266Z,0
2016-02-11T05:00:06.269Z,0
2016-02-11T05:01:06.288Z,0
2016-02-11T05:02:06.275Z,0
2016-02-11T05:03:06.262Z,0
2016-02-11T05:04:06.109Z,0
2016-02-11T05:05:06.268Z,0
2016-02-11T05:06:06.272Z,0
2016-02-11T05:07:06.244Z,0
2016-02-11T05:08:06.247Z,0
2016-02-11T05:09:06.249Z,0
2016-02-11T05:10:06.236Z,0
2016-02-11T05:11:06.239Z,0
2016-02-11T05:12:06.242Z,0
2016-02-11T05:13:06.228Z,0
2016-02-11T05:14:06.216Z,0
2016-02-11T05:15:06.233Z,0
2016-02-11T05:16:06.222Z,0
2016-02-11T05:17:06.208Z,0
2016-02-11T05:18:06.211Z,0
2016-02-11T05:19:06.229Z,0
2016-02-11T05:20:06.216Z,0
2016-02-11T05:21:06.187Z,0
2016-02-11T05:22:06.206Z,0
2016-02-11T05:23:06.193Z,0
2016-02-11T05:24:06.196Z,0
2016-02-11T05:25:06.182Z,0
2016-02-11T05:26:06.180Z,0
2016-02-11T05:27:06.182Z,0
2016-02-11T05:28:06.185Z,0
2016-02-11T05:29:06.156Z,0
2016-02-11T05:30:06.159Z,0
2016-02-11T05:31:06.145Z,0
2016-02-11T05:32:06.148Z,0
2016-02-11T05:33:06.168Z,0
2016-02-11T05:34:06.155Z,0
2016-02-11T05:35:06.157Z,0
2016-02-11T05:36:06.130Z,0
2016-02-11T05:37:06.179Z,0
2016-02-11T05:38:06.150Z,0
2016-02-11T05:39:06.153Z,0
2016-02-11T05:40:06.140Z,0
2016-02-11T05:41:06.113Z,0
2016-02-11T05:42:06.116Z,0
2016-02-11T05:43:06.149Z,0
2016-02-11T05:44:06.104Z,0
2016-02-11T05:45:06.107Z,0
2016-02-11T05:46:06.110Z,0
2016-02-11T05:47:06.113Z,0
2016-02-11T05:48:06.100Z,0
2016-02-11T05:49:06.103Z,0
2016-02-11T05:50:06.122Z,0
2016-02-11T05:51:06.078Z,0
2016-02-11T05:52:06.080Z,0
2016-02-11T05:53:06.068Z,0
2016-02-11T05:54:06.076Z,0
2016-02-11T05:55:06.062Z,4
2016-02-11T05:56:06.144Z,4
2016-02-11T05:57:06.068Z,0
2016-02-11T05:58:06.119Z,4
2016-02-11T05:59:06.075Z,4
2016-02-11T06:00:06.047Z,4
2016-02-11T06:01:06.034Z,8
2016-02-11T06:02:06.036Z,8
2016-02-11T06:03:06.055Z,8
2016-02-11T06:04:06.025Z,12
2016-02-11T06:05:06.028Z,16
2016-02-11T06:06:06.016Z,16
2016-02-11T06:07:06.239Z,20
2016-02-11T06:08:06.038Z,24
2016-02-11T06:09:05.994Z,24
2016-02-11T06:10:06.013Z,28
2016-02-11T06:11:06.016Z,36
2016-02-11T06:12:05.975Z,44
2016-02-11T06:13:06.057Z,48
2016-02-11T06:14:05.952Z,60
2016-02-11T06:15:05.926Z,68
2016-02-11T06:16:05.900Z,76
2016-02-11T06:17:05.913Z,88
2016-02-11T06:18:05.880Z,100
2016-02-11T06:19:05.878Z,112
2016-02-11T06:20:05.876Z,132
2016-02-11T06:21:05.857Z,148
2016-02-11T06:22:05.905Z,164
2016-02-11T06:23:05.844Z,184
2016-02-11T06:24:05.844Z,208
2016-02-11T06:25:05.830Z,228
2016-02-11T06:26:05.831Z,248
2016-02-11T06:27:05.819Z,272
2016-02-11T06:28:05.806Z,292
2016-02-11T06:29:05.839Z,316
2016-02-11T06:30:05.809Z,340
2016-02-11T06:31:05.843Z,368
2016-02-11T06:32:05.799Z,396
2016-02-11T06:33:05.785Z,428
2016-02-11T06:34:05.772Z,476
2016-02-11T06:35:05.776Z,528
2016-02-11T06:36:05.780Z,560
2016-02-11T06:37:05.766Z,588
2016-02-11T06:38:05.784Z,612
2016-02-11T06:39:05.756Z,668
2016-02-11T06:40:05.773Z,724
2016-02-11T06:41:05.746Z,756
2016-02-11T06:42:05.748Z,760
2016-02-11T06:43:05.737Z,800
2016-02-11T06:44:05.786Z,860
2016-02-11T06:45:05.727Z,900
2016-02-11T06:46:05.714Z,956
2016-02-11T06:47:05.732Z,1112
2016-02-11T06:48:05.719Z,1256
2016-02-11T06:49:05.706Z,1280
2016-02-11T06:50:05.724Z,1316
2016-02-11T06:51:05.712Z,1360
2016-02-11T06:52:05.715Z,1396
2016-02-11T06:53:05.703Z,1420
2016-02-11T06:54:05.680Z,1456
2016-02-11T06:55:05.699Z,1456
2016-02-11T06:56:05.748Z,1484
2016-02-11T06:57:05.703Z,1512
2016-02-11T06:58:05.676Z,1536
2016-02-11T06:59:05.678Z,1492
2016-02-11T07:00:05.511Z,1472
2016-02-11T07:01:05.653Z,1556
2016-02-11T07:02:05.656Z,1644
2016-02-11T07:03:05.659Z,1644
2016-02-11T07:04:05.521Z,1692
2016-02-11T07:05:05.649Z,1756
2016-02-11T07:06:05.636Z,1760
2016-02-11T07:07:05.654Z,1788
2016-02-11T07:08:05.626Z,1816
2016-02-11T07:09:05.630Z,1868
2016-02-11T07:10:05.617Z,1980
2016-02-11T07:11:05.635Z,2080
2016-02-11T07:12:05.606Z,2100
2016-02-11T07:13:05.608Z,2196
2016-02-11T07:14:05.628Z,2164
2016-02-11T07:15:05.614Z,2168
2016-02-11T07:16:05.602Z,2272
2016-02-11T07:17:05.604Z,2316
2016-02-11T07:18:05.591Z,2348
2016-02-11T07:19:05.625Z,2412
2016-02-11T07:20:05.580Z,2488
2016-02-11T07:21:05.583Z,2600
2016-02-11T07:22:06.055Z,2700
2016-02-11T07:23:05.563Z,2624
2016-02-11T07:24:05.582Z,2572
2016-02-11T07:25:05.568Z,2528
2016-02-11T07:26:05.555Z,2508
2016-02-11T07:27:05.558Z,2424
2016-02-11T07:28:05.545Z,2404
2016-02-11T07:29:05.547Z,2352
2016-02-11T07:30:05.551Z,2328
2016-02-11T07:31:05.553Z,2364
2016-02-11T07:32:05.571Z,2392
2016-02-11T07:33:05.543Z,2432
2016-02-11T07:34:05.531Z,2468
2016-02-11T07:35:05.517Z,2532
2016-02-11T07:36:05.520Z,2628
2016-02-11T07:37:05.523Z,2812
2016-02-11T07:38:05.525Z,2864
2016-02-11T07:39:05.512Z,2928
2016-02-11T07:40:05.515Z,3000
2016-02-11T07:41:05.517Z,2988
2016-02-11T07:42:05.520Z,3104
2016-02-11T07:43:05.493Z,3180
2016-02-11T07:44:05.495Z,3324
2016-02-11T07:45:05.498Z,3292
2016-02-11T07:46:05.491Z,3344
2016-02-11T07:47:05.493Z,3352
2016-02-11T07:48:05.496Z,3372
2016-02-11T07:49:05.484Z,3580
2016-02-11T07:50:05.471Z,3756
2016-02-11T07:51:05.473Z,3564
2016-02-11T07:52:05.459Z,3520
2016-02-11T07:53:05.447Z,3384
2016-02-11T07:54:05.466Z,3116
2016-02-11T07:55:05.470Z,2760
2016-02-11T07:56:05.507Z,2496
2016-02-11T07:57:05.481Z,2408
2016-02-11T07:58:05.437Z,2444
2016-02-11T07:59:05.456Z,2504
2016-02-11T08:00:05.458Z,2576
2016-02-11T08:01:05.445Z,2676
2016-02-11T08:02:05.416Z,2816
2016-02-11T08:03:05.421Z,2848
2016-02-11T08:04:05.454Z,2888
2016-02-11T08:05:05.426Z,2780
2016-02-11T08:06:05.412Z,2636
2016-02-11T08:07:05.431Z,2700
2016-02-11T08:08:05.402Z,2728
2016-02-11T08:09:05.390Z,2864
2016-02-11T08:10:05.423Z,3000
2016-02-11T08:11:05.412Z,3208
2016-02-11T08:12:05.384Z,3480
2016-02-11T08:13:05.386Z,3356
2016-02-11T08:14:05.388Z,3524
2016-02-11T08:15:05.391Z,3420
2016-02-11T08:16:05.378Z,3036
2016-02-11T08:17:05.381Z,2876
2016-02-11T08:18:05.383Z,2960
2016-02-11T08:19:05.573Z,3060
2016-02-11T08:20:05.359Z,3216
2016-02-11T08:21:05.345Z,3256
2016-02-11T08:22:05.349Z,3420
2016-02-11T08:23:05.351Z,3500
2016-02-11T08:24:05.337Z,3448
2016-02-11T08:25:05.325Z,3460
2016-02-11T08:26:05.328Z,3404
2016-02-11T08:27:05.349Z,3160
2016-02-11T08:28:05.351Z,3052
2016-02-11T08:29:05.354Z,3024
2016-02-11T08:30:05.342Z,2940
2016-02-11T08:31:05.328Z,2856
2016-02-11T08:32:05.315Z,2844
2016-02-11T08:33:05.303Z,2804
2016-02-11T08:34:05.306Z,2768
2016-02-11T08:35:05.292Z,2744
2016-02-11T08:36:05.295Z,2760
2016-02-11T08:37:05.297Z,2772
2016-02-11T08:38:05.300Z,2788
2016-02-11T08:39:05.304Z,2860
2016-02-11T08:40:05.275Z,2808
2016-02-11T08:41:05.277Z,2808
2016-02-11T08:42:05.296Z,2836
2016-02-11T08:43:05.267Z,2840
2016-02-11T08:44:05.270Z,2884
2016-02-11T08:45:05.289Z,2852
2016-02-11T08:46:05.260Z,2872
2016-02-11T08:47:05.262Z,2904
2016-02-11T08:48:05.265Z,2960
2016-02-11T08:49:05.283Z,2964
2016-02-11T08:50:05.271Z,3004
2016-02-11T08:51:05.289Z,2988
2016-02-11T08:52:05.260Z,2888
2016-02-11T08:53:05.247Z,2980
2016-02-11T08:54:05.235Z,3196
2016-02-11T08:55:05.252Z,3176
2016-02-11T08:56:05.255Z,3348
2016-02-11T08:57:05.213Z,3268
2016-02-11T08:58:05.221Z,3340
2016-02-11T08:59:06.381Z,3096
2016-02-11T09:00:05.305Z,3128
2016-02-11T09:01:05.527Z,3028
2016-02-11T09:02:05.452Z,3084
2016-02-11T09:03:05.611Z,3032
2016-02-11T09:04:05.348Z,2984
2016-02-11T09:05:05.321Z,2940
2016-02-11T09:06:05.480Z,2904
2016-02-11T09:07:05.576Z,2936
2016-02-11T09:08:05.547Z,2976
2016-02-11T09:09:05.425Z,3004
2016-02-11T09:10:05.163Z,3068
2016-02-11T09:11:05.166Z,3216
2016-02-11T09:12:05.152Z,3228
2016-02-11T09:13:05.250Z,3212
2016-02-11T09:14:05.158Z,3208
2016-02-11T09:15:05.162Z,3092
2016-02-11T09:16:05.149Z,3028
2016-02-11T09:17:05.151Z,3004
2016-02-11T09:18:05.154Z,3072
2016-02-11T09:19:04.970Z,3132
2016-02-11T09:20:04.987Z,3168
2016-02-11T09:21:05.588Z,3200
2016-02-11T09:22:05.529Z,3188
2016-02-11T09:23:05.657Z,3324
2016-02-11T09:24:05.580Z,3304
2016-02-11T09:25:05.427Z,3284
2016-02-11T09:26:05.664Z,3368
2016-02-11T09:27:05.964Z,3324
2016-02-11T09:28:05.654Z,3264
2016-02-11T09:29:05.410Z,3392
2016-02-11T09:30:05.615Z,3468
2016-02-11T09:31:05.704Z,3416
2016-02-11T09:32:05.534Z,3508
2016-02-11T09:33:05.429Z,3388
2016-02-11T09:34:05.525Z,3368
2016-02-11T09:35:05.371Z,3392
2016-02-11T09:36:05.374Z,3784
2016-02-11T09:37:05.532Z,3972
2016-02-11T09:38:05.363Z,3932
2016-02-11T09:39:05.538Z,3704
2016-02-11T09:40:05.462Z,4008
2016-02-11T09:41:05.450Z,4640
2016-02-11T09:42:05.484Z,5940
2016-02-11T09:43:06.095Z,7048
2016-02-11T09:44:05.520Z,7076
2016-02-11T09:45:05.367Z,7444
2016-02-11T09:46:05.385Z,8584
2016-02-11T09:47:05.561Z,9096
2016-02-11T09:48:05.549Z,8932
2016-02-11T09:49:04.801Z,8744
2016-02-11T09:50:05.492Z,8940
2016-02-11T09:51:05.605Z,9360
2016-02-11T09:52:05.498Z,9228
2016-02-11T09:53:05.625Z,9228
2016-02-11T09:54:05.613Z,9392
2016-02-11T09:55:05.599Z,9620
2016-02-11T09:56:05.477Z,10080
2016-02-11T09:57:05.605Z,10052
2016-02-11T09:58:05.389Z,10116
2016-02-11T09:59:05.330Z,10472
2016-02-11T10:00:05.332Z,10792
2016-02-11T10:01:05.555Z,11004
2016-02-11T10:02:05.432Z,10856
2016-02-11T10:03:05.482Z,10732
2016-02-11T10:04:05.235Z,10844
2016-02-11T10:05:05.660Z,10652
2016-02-11T10:06:05.381Z,10516
2016-02-11T10:07:05.603Z,10016
2016-02-11T10:08:05.386Z,9676
2016-02-11T10:09:05.374Z,10308
2016-02-11T10:10:05.283Z,10608
2016-02-11T10:11:05.378Z,10736
2016-02-11T10:12:05.398Z,10788
2016-02-11T10:13:05.509Z,10760
2016-02-11T10:14:05.372Z,10356
2016-02-11T10:15:05.437Z,10184
2016-02-11T10:16:05.425Z,9812
2016-02-11T10:17:05.334Z,9440
2016-02-11T10:18:05.696Z,9068
2016-02-11T10:19:05.558Z,9144
2016-02-11T10:20:05.622Z,9024
2016-02-11T10:21:05.423Z,8844
2016-02-11T10:22:05.066Z,8904
2016-02-11T10:23:05.444Z,9080
2016-02-11T10:24:05.697Z,9148
2016-02-11T10:25:05.542Z,8936
2016-02-11T10:26:05.436Z,8940
2016-02-11T10:27:05.423Z,9172
2016-02-11T10:28:05.488Z,9284
2016-02-11T10:29:05.163Z,9272
2016-02-11T10:30:05.369Z,9200
2016-02-11T10:31:05.309Z,9136
2016-02-11T10:32:05.281Z,9280
2016-02-11T10:33:05.520Z,9840
2016-02-11T10:34:05.429Z,10076
2016-02-11T10:35:05.479Z,9880
2016-02-11T10:36:05.482Z,9988
2016-02-11T10:37:04.970Z,10224
2016-02-11T10:38:05.644Z,10136
2016-02-11T10:39:05.319Z,10244
2016-02-11T10:40:05.431Z,10152
2016-02-11T10:41:05.293Z,9852
2016-02-11T10:42:05.453Z,9864
2016-02-11T10:43:05.361Z,10344
2016-02-11T10:44:05.443Z,10844
2016-02-11T10:45:05.336Z,11140
2016-02-11T10:46:05.354Z,11360
2016-02-11T10:47:05.357Z,11636
2016-02-11T10:48:05.406Z,12064
2016-02-11T10:49:05.440Z,12380
2016-02-11T10:50:05.537Z,12492
2016-02-11T10:51:04.931Z,12660
2016-02-11T10:52:04.779Z,12752
2016-02-11T10:53:04.938Z,12720
2016-02-11T10:54:04.957Z,12484
2016-02-11T10:55:04.944Z,12768
2016-02-11T10:56:04.947Z,13032
2016-02-11T10:57:04.450Z,12400
2016-02-11T10:58:04.985Z,12288
2016-02-11T10:59:05.066Z,12096
2016-02-11T11:00:05.085Z,12620
2016-02-11T11:01:05.103Z,13608
2016-02-11T11:02:04.918Z,14064
2016-02-11T11:03:05.002Z,13856
2016-02-11T11:04:04.926Z,13488
2016-02-11T11:05:04.929Z,13588
2016-02-11T11:06:04.916Z,13408
2016-02-11T11:07:05.230Z,13412
2016-02-11T11:08:04.921Z,13092
2016-02-11T11:09:05.033Z,12652
2016-02-11T11:10:04.973Z,12480
2016-02-11T11:11:05.226Z,12544
2016-02-11T11:12:04.479Z,12744
2016-02-11T11:13:05.122Z,12844
2016-02-11T11:14:05.063Z,12604
2016-02-11T11:15:04.924Z,12532
2016-02-11T11:16:04.942Z,12632
2016-02-11T11:17:05.024Z,12880
2016-02-11T11:18:05.058Z,13272
2016-02-11T11:19:05.123Z,13364
2016-02-11T11:20:04.970Z,13324
2016-02-11T11:21:05.004Z,13228
2016-02-11T11:22:04.960Z,12916
2016-02-11T11:23:05.587Z,12592
2016-02-11T11:24:05.106Z,11860
2016-02-11T11:25:05.202Z,10984
2016-02-11T11:26:05.265Z,10492
2016-02-11T11:27:05.033Z,10696
2016-02-11T11:28:05.473Z,11176
2016-02-11T11:29:05.553Z,11568
2016-02-11T11:30:05.056Z,11460
2016-02-11T11:31:05.512Z,11412
2016-02-11T11:32:05.264Z,11668
2016-02-11T11:33:05.253Z,12088
2016-02-11T11:34:04.958Z,12276
2016-02-11T11:35:04.957Z,12292
2016-02-11T11:36:05.273Z,12196
2016-02-11T11:37:04.947Z,12304
2016-02-11T11:38:05.746Z,12464
2016-02-11T11:39:05.031Z,12776
2016-02-11T11:40:04.971Z,12748
2016-02-11T11:41:05.224Z,12252
2016-02-11T11:42:05.288Z,11680
2016-02-11T11:43:05.120Z,11304
2016-02-11T11:44:05.185Z,12264
2016-02-11T11:45:05.033Z,12184
2016-02-11T11:46:05.160Z,11904
2016-02-11T11:47:05.303Z,11948
2016-02-11T11:48:04.947Z,11988
2016-02-11T11:49:04.949Z,11968
2016-02-11T11:50:04.952Z,11180
2016-02-11T11:51:05.433Z,10724
2016-02-11T11:52:05.187Z,11332
2016-02-11T11:53:04.861Z,11396
2016-02-11T11:54:04.822Z,11928
2016-02-11T11:55:04.949Z,12620
2016-02-11T11:56:04.968Z,12756
2016-02-11T11:57:04.781Z,12364
2016-02-11T11:58:04.793Z,11448
2016-02-11T11:59:05.030Z,10988
2016-02-11T12:00:33.903Z,10132
2016-02-11T12:01:04.967Z,9684
2016-02-11T12:02:05.127Z,8108
2016-02-11T12:03:05.145Z,6736
2016-02-11T12:04:05.383Z,6268
2016-02-11T12:05:05.478Z,6156
2016-02-11T12:06:05.372Z,7000
2016-02-11T12:07:05.358Z,7932
2016-02-11T12:08:05.486Z,9368
2016-02-11T12:09:05.349Z,9752
2016-02-11T12:10:05.227Z,9880
2016-02-11T12:11:05.433Z,9628
2016-02-11T12:12:05.279Z,10300
2016-02-11T12:13:05.422Z,11568
2016-02-11T12:14:05.377Z,11852
2016-02-11T12:15:05.490Z,10736
2016-02-11T12:16:04.555Z,8792
2016-02-11T12:17:05.418Z,7036
2016-02-11T12:18:05.264Z,6560
2016-02-11T12:19:05.126Z,5504
2016-02-11T12:20:05.254Z,4488
2016-02-11T12:21:05.271Z,4132
2016-02-11T12:22:05.415Z,4868
2016-02-11T12:23:05.153Z,5984
2016-02-11T12:24:05.376Z,7016
2016-02-11T12:25:05.300Z,7840
2016-02-11T12:26:05.318Z,7112
2016-02-11T12:27:04.336Z,6412
2016-02-11T12:28:04.966Z,6372
2016-02-11T12:29:04.986Z,7436
2016-02-11T12:30:04.942Z,9552
2016-02-11T12:31:04.959Z,11048
2016-02-11T12:32:04.968Z,10832
2016-02-11T12:33:04.971Z,10984
2016-02-11T12:34:04.943Z,12272
2016-02-11T12:35:04.945Z,14024
2016-02-11T12:36:04.964Z,14132
2016-02-11T12:37:04.968Z,13948
2016-02-11T12:38:04.939Z,12996
2016-02-11T12:39:04.958Z,12584
2016-02-11T12:40:04.961Z,11980
2016-02-11T12:41:04.947Z,10552
2016-02-11T12:42:04.935Z,8296
2016-02-11T12:43:04.938Z,7080
2016-02-11T12:44:04.971Z,7256
2016-02-11T12:45:04.974Z,8400
2016-02-11T12:46:04.946Z,9556
2016-02-11T12:47:04.933Z,10604
2016-02-11T12:48:04.999Z,11640
2016-02-11T12:49:05.252Z,12848
2016-02-11T12:50:04.973Z,12704
2016-02-11T12:51:04.960Z,12196
2016-02-11T12:52:04.947Z,11340
2016-02-11T12:53:04.933Z,9788
2016-02-11T12:54:04.953Z,8836
2016-02-11T12:55:04.971Z,8132
2016-02-11T12:56:04.958Z,8564
2016-02-11T12:57:04.930Z,9488
2016-02-11T12:58:04.963Z,10436
2016-02-11T12:59:04.966Z,10324
2016-02-11T13:00:04.954Z,9620
2016-02-11T13:01:04.941Z,8860
2016-02-11T13:02:04.949Z,8196
2016-02-11T13:03:04.952Z,8092
2016-02-11T13:04:04.955Z,8708
2016-02-11T13:05:04.988Z,9560
2016-02-11T13:06:04.961Z,10524
2016-02-11T13:07:04.963Z,11416
2016-02-11T13:08:04.965Z,12448
2016-02-11T13:09:04.968Z,13588
2016-02-11T13:10:04.955Z,14340
2016-02-11T13:11:04.960Z,14680
2016-02-11T13:12:04.963Z,14924
2016-02-11T13:13:04.966Z,14688
2016-02-11T13:14:04.969Z,14516
2016-02-11T13:15:04.955Z,13848
2016-02-11T13:16:04.974Z,11436
2016-02-11T13:17:04.961Z,8484
2016-02-11T13:18:04.963Z,6532
2016-02-11T13:19:04.982Z,5816
2016-02-11T13:20:04.970Z,4856
2016-02-11T13:21:05.285Z,3748
2016-02-11T13:22:04.960Z,2976
2016-02-11T13:23:04.964Z,2720
2016-02-11T13:24:04.967Z,2460
2016-02-11T13:25:05.048Z,2020
2016-02-11T13:26:05.003Z,1000
2016-02-11T13:27:04.989Z,752
2016-02-11T13:28:04.961Z,848
2016-02-11T13:29:04.964Z,892
2016-02-11T13:30:04.983Z,1084
2016-02-11T13:31:05.157Z,1136
2016-02-11T13:32:05.003Z,932
2016-02-11T13:33:04.993Z,720
2016-02-11T13:34:05.027Z,732
2016-02-11T13:35:04.966Z,616
2016-02-11T13:36:05.001Z,616
2016-02-11T13:37:04.972Z,596
2016-02-11T13:38:05.006Z,588
2016-02-11T13:39:04.994Z,480
2016-02-11T13:40:04.981Z,540
2016-02-11T13:41:04.968Z,584
2016-02-11T13:42:04.222Z,588
2016-02-11T13:43:04.957Z,796
2016-02-11T13:44:04.960Z,1036
2016-02-11T13:45:04.963Z,1384
2016-02-11T13:46:04.950Z,2284
2016-02-11T13:47:04.938Z,3268
2016-02-11T13:48:04.956Z,3872
2016-02-11T13:49:04.944Z,4672
2016-02-11T13:50:04.962Z,6036
2016-02-11T13:51:04.949Z,7412
2016-02-11T13:52:04.936Z,8240
2016-02-11T13:53:04.939Z,7956